Map

Track Data

SID SEASON NUMBER BASIN SUBBASIN NAME ISO_TIME NATURE LAT LON WMO_WIND WMO_PRES WMO_AGENCY TRACK_TYPE DIST2LAND LANDFALL IFLAG USA_AGENCY USA_ATCF_ID USA_LAT USA_LON USA_RECORD USA_STATUS USA_WIND USA_PRES USA_SSHS USA_R34_NE USA_R34_SE USA_R34_SW USA_R34_NW USA_R50_NE USA_R50_SE USA_R50_SW USA_R50_NW USA_R64_NE USA_R64_SE USA_R64_SW USA_R64_NW USA_POCI USA_ROCI USA_RMW USA_EYE TOKYO_LAT TOKYO_LON TOKYO_GRADE TOKYO_WIND TOKYO_PRES TOKYO_R50_DIR TOKYO_R50_LONG TOKYO_R50_SHORT TOKYO_R30_DIR TOKYO_R30_LONG TOKYO_R30_SHORT TOKYO_LAND CMA_LAT CMA_LON CMA_CAT CMA_WIND CMA_PRES HKO_LAT HKO_LON HKO_CAT HKO_WIND HKO_PRES NEWDELHI_LAT NEWDELHI_LON NEWDELHI_GRADE NEWDELHI_WIND NEWDELHI_PRES NEWDELHI_CI NEWDELHI_DP NEWDELHI_POCI REUNION_LAT REUNION_LON REUNION_TYPE REUNION_WIND REUNION_PRES REUNION_TNUM REUNION_CI REUNION_RMW REUNION_R34_NE REUNION_R34_SE REUNION_R34_SW REUNION_R34_NW REUNION_R50_NE REUNION_R50_SE REUNION_R50_SW REUNION_R50_NW REUNION_R64_NE REUNION_R64_SE REUNION_R64_SW REUNION_R64_NW BOM_LAT BOM_LON BOM_TYPE BOM_WIND BOM_PRES BOM_TNUM BOM_CI BOM_RMW BOM_R34_NE BOM_R34_SE BOM_R34_SW BOM_R34_NW BOM_R50_NE BOM_R50_SE BOM_R50_SW BOM_R50_NW BOM_R64_NE BOM_R64_SE BOM_R64_SW BOM_R64_NW BOM_ROCI BOM_POCI BOM_EYE BOM_POS_METHOD BOM_PRES_METHOD NADI_LAT NADI_LON NADI_CAT NADI_WIND NADI_PRES WELLINGTON_LAT WELLINGTON_LON WELLINGTON_WIND WELLINGTON_PRES DS824_LAT DS824_LON DS824_STAGE DS824_WIND DS824_PRES TD9636_LAT TD9636_LON TD9636_STAGE TD9636_WIND TD9636_PRES TD9635_LAT TD9635_LON TD9635_WIND TD9635_PRES TD9635_ROCI NEUMANN_LAT NEUMANN_LON NEUMANN_CLASS NEUMANN_WIND NEUMANN_PRES MLC_LAT MLC_LON MLC_CLASS MLC_WIND MLC_PRES USA_GUST BOM_GUST BOM_GUST_PER REUNION_GUST REUNION_GUST_PER USA_SEAHGT USA_SEARAD_NE USA_SEARAD_SE USA_SEARAD_SW USA_SEARAD_NW STORM_SPEED STORM_DIR
1899063S12145 1899 9 SP EA NOT_NAMED 1899-03-03 12:00:00 NR -12.2000 145.400 main 220 220 __________O___ -1 -12.2000 145.400 7 0 0
1899063S12145 1899 9 SP EA NOT_NAMED 1899-03-03 15:00:00 NR -12.1813 145.414 main 220 220 __________P___ -1 -12.1813 145.414 7 0 0
1899063S12145 1899 9 SP EA NOT_NAMED 1899-03-03 18:00:00 NR -12.1800 145.422 main 220 220 __________P___ -1 -12.1800 145.422 7 0 145
1899063S12145 1899 9 SP EA NOT_NAMED 1899-03-03 21:00:00 NR -12.2138 145.420 main 220 216 __________P___ -1 -12.2138 145.420 7 1 0
1899063S12145 1899 9 SP EA NOT_NAMED 1899-03-04 00:00:00 NR -12.3000 145.400 main 216 213 __________O___ -1 -12.3000 145.400 7 2 193
1899063S12145 1899 9 SP EA NOT_NAMED 1899-03-04 03:00:00 NR -12.4481 145.359 main 213 198 __________P___ -1 -12.4481 145.359 7 4 198
1899063S12145 1899 9 SP EA NOT_NAMED 1899-03-04 06:00:00 NR -12.6350 145.295 main 198 184 __________P___ -1 -12.6350 145.295 7 4 201
1899063S12145 1899 9 SP EA NOT_NAMED 1899-03-04 09:00:00 NR -12.8293 145.209 main 184 159 __________P___ -1 -12.8293 145.209 7 4 207
1899063S12145 1899 9 SP EA NOT_NAMED 1899-03-04 12:00:00 NR -13.0000 145.100 main 159 144 __________O___ -1 -13.0000 145.100 7 3 215
1899063S12145 1899 9 SP EA NOT_NAMED 1899-03-04 15:00:00 NR -13.1076 145.008 main 144 130 __________P___ -1 -13.1076 145.008 7 3 227
1899063S12145 1899 9 SP EA NOT_NAMED 1899-03-04 18:00:00 NR -13.1872 144.890 main 130 121 __________P___ -1 -13.1872 144.890 7 3 243
1899063S12145 1899 9 SP EA NOT_NAMED 1899-03-04 21:00:00 NR -13.2481 144.727 main 121 98 __________P___ -1 -13.2481 144.727 7 4 253
1899063S12145 1899 9 SP EA NOT_NAMED 1899-03-05 00:00:00 NR -13.3000 144.500 main 98 64 __________O___ -1 -13.3000 144.500 7 5 258
1899063S12145 1899 9 SP EA NOT_NAMED 1899-03-05 03:00:00 NR -13.3614 144.194 main 64 21 __________P___ -1 -13.3614 144.194 7 7 260
1899063S12145 1899 9 SP EA NOT_NAMED 1899-03-05 06:00:00 NR -13.4152 143.825 main 21 0 __________P___ -1 -13.4152 143.825 7 8 262
1899063S12145 1899 9 SP EA NOT_NAMED 1899-03-05 09:00:00 NR -13.4613 143.419 main 0 0 __________P___ -1 -13.4613 143.419 7 8 264
1899063S12145 1899 9 SP EA NOT_NAMED 1899-03-05 12:00:00 NR -13.5000 143.000 main 0 0 __________O___ -1 -13.5000 143.000 7 8 266
1899063S12145 1899 9 SP EA NOT_NAMED 1899-03-05 15:00:00 NR -13.5244 142.554 main 0 0 __________P___ -1 -13.5244 142.554 7 9 267
1899063S12145 1899 9 SP EA NOT_NAMED 1899-03-05 18:00:00 NR -13.5430 142.110 main 0 0 __________P___ -1 -13.5430 142.110 7 8 267
1899063S12145 1899 9 SP EA NOT_NAMED 1899-03-05 21:00:00 NR -13.5650 141.711 main 0 0 __________P___ -1 -13.5650 141.711 7 7 265
1899063S12145 1899 9 SP EA NOT_NAMED 1899-03-06 00:00:00 NR -13.6000 141.400 main 21 21 __________O___ -1 -13.6000 141.400 7 5 258
1899063S12145 1899 9 SP EA NOT_NAMED 1899-03-06 03:00:00 NR -13.6643 141.232 main 39 39 __________P___ -1 -13.6643 141.232 7 3 239
1899063S12145 1899 9 SP EA NOT_NAMED 1899-03-06 06:00:00 NR -13.7420 141.152 main 39 39 __________P___ -1 -13.7420 141.152 7 2 213
1899063S12145 1899 9 SP EA NOT_NAMED 1899-03-06 09:00:00 NR -13.8238 141.122 main 44 43 __________P___ -1 -13.8238 141.122 7 2 200
1899063S12145 1899 9 SP EA NOT_NAMED 1899-03-06 12:00:00 NR -13.9000 141.100 main 43 43 __________O___ -1 -13.9000 141.100 7 2 226
1899063S12145 1899 9 SP EA NOT_NAMED 1899-03-06 15:00:00 NR -13.9328 141.005 main 53 53 __________P___ -1 -13.9328 141.005 7 2 251
1899063S12145 1899 9 SP EA NOT_NAMED 1899-03-06 18:00:00 NR -13.9625 140.913 main 65 65 __________P___ -1 -13.9625 140.913 7 2 244
1899063S12145 1899 9 SP EA NOT_NAMED 1899-03-06 21:00:00 NR -14.0109 140.839 main 76 76 __________P___ -1 -14.0109 140.839 7 2 219
1899063S12145 1899 9 SP EA NOT_NAMED 1899-03-07 00:00:00 NR -14.1000 140.800 main 78 78 __________O___ -1 -14.1000 140.800 7 3 190
1899063S12145 1899 9 SP EA NOT_NAMED 1899-03-07 03:00:00 NR -14.2690 140.806 main 78 75 __________P___ -1 -14.2690 140.806 7 4 174
1899063S12145 1899 9 SP EA NOT_NAMED 1899-03-07 06:00:00 NR -14.4775 140.847 main 75 64 __________P___ -1 -14.4775 140.847 7 4 166
1899063S12145 1899 9 SP EA NOT_NAMED 1899-03-07 09:00:00 NR -14.6972 140.915 main 68 63 __________P___ -1 -14.6972 140.915 7 5 161
1899063S12145 1899 9 SP EA NOT_NAMED 1899-03-07 12:00:00 NR -14.9000 141.000 main 68 63 __________O___ -1 -14.9000 141.000 7 4 155
1899063S12145 1899 9 SP EA NOT_NAMED 1899-03-07 15:00:00 NR -15.0425 141.086 main 63 44 __________P___ -1 -15.0425 141.086 7 3 146
1899063S12145 1899 9 SP EA NOT_NAMED 1899-03-07 18:00:00 NR -15.1650 141.185 main 44 31 __________P___ -1 -15.1650 141.185 7 3 140
1899063S12145 1899 9 SP EA NOT_NAMED 1899-03-07 21:00:00 NR -15.2800 141.292 main 31 15 __________P___ -1 -15.2800 141.292 7 3 139
1899063S12145 1899 9 SP EA NOT_NAMED 1899-03-08 00:00:00 NR -15.4000 141.400 main 15 0 __________O___ -1 -15.4000 141.400 7 3 141
1899063S12145 1899 9 SP EA NOT_NAMED 1899-03-08 03:00:00 NR -15.5428 141.512 main 0 0 __________P___ -1 -15.5428 141.512 7 4 144
1899063S12145 1899 9 SP EA NOT_NAMED 1899-03-08 06:00:00 NR -15.6925 141.622 main 0 0 __________P___ -1 -15.6925 141.622 7 4 146
1899063S12145 1899 9 SP EA NOT_NAMED 1899-03-08 09:00:00 NR -15.8460 141.722 main 0 0 __________P___ -1 -15.8460 141.722 7 4 151
1899063S12145 1899 9 SP EA NOT_NAMED 1899-03-08 12:00:00 NR -16.0000 141.800 main 0 0 __________O___ -1 -16.0000 141.800 7 4 154
1899063S12145 1899 9 SP EA NOT_NAMED 1899-03-08 15:00:00 NR -16.1743 141.887 main 0 0 __________P___ -1 -16.1743 141.887 7 4 157
1899063S12145 1899 9 SP EA NOT_NAMED 1899-03-08 18:00:00 NR -16.3448 141.947 main 0 0 __________P___ -1 -16.3448 141.947 7 3 168
1899063S12145 1899 9 SP EA NOT_NAMED 1899-03-08 21:00:00 NR -16.4930 141.959 main 0 0 __________P___ -1 -16.4930 141.959 7 3 190
1899063S12145 1899 9 SP EA NOT_NAMED 1899-03-09 00:00:00 NR -16.6000 141.900 main 0 0 __________O___ -1 -16.6000 141.900 7 3 232
1899063S12145 1899 9 SP EA NOT_NAMED 1899-03-09 03:00:00 NR -16.6555 141.743 main 0 0 __________P___ -1 -16.6555 141.743 7 4 260
1899063S12145 1899 9 SP EA NOT_NAMED 1899-03-09 06:00:00 NR -16.6677 141.518 main 0 0 __________P___ -1 -16.6677 141.518 7 5 271
1899063S12145 1899 9 SP EA NOT_NAMED 1899-03-09 09:00:00 NR -16.6461 141.258 main 0 0 __________P___ -1 -16.6461 141.258 7 5 278
1899063S12145 1899 9 SP EA NOT_NAMED 1899-03-09 12:00:00 NR -16.6000 141.000 main 24 24 __________O___ -1 -16.6000 141.000 7 5 283
1899063S12145 1899 9 SP EA NOT_NAMED 1899-03-09 15:00:00 NR -16.5380 140.769 main 48 48 __________P___ -1 -16.5380 140.769 7 4 288
1899063S12145 1899 9 SP EA NOT_NAMED 1899-03-09 18:00:00 NR -16.4649 140.565 main 67 67 __________P___ -1 -16.4649 140.565 7 4 292
1899063S12145 1899 9 SP EA NOT_NAMED 1899-03-09 21:00:00 NR -16.3843 140.378 main 91 91 __________P___ -1 -16.3843 140.378 7 4 295
1899063S12145 1899 9 SP EA NOT_NAMED 1899-03-10 00:00:00 NR -16.3000 140.200 main 115 __________O___ -1 -16.3000 140.200 7 4 296

Digital Typhoon Data and Search

About IBTrACS Database

This database is a web-friendly format of International Best Track Archive for Climate Stewardship (IBTrACS), a global best track data archive curated by NOAA dating back to 1842.

Updated: 2021-10-08